createdAt,value
2022-10-09T00:01:16.950Z,15.03
2022-10-09T00:03:46.712Z,15.09
2022-10-09T00:06:16.345Z,15.10
2022-10-09T00:08:45.930Z,15.11
2022-10-09T00:11:16.264Z,15.11
2022-10-09T00:13:44.570Z,15.17
2022-10-09T00:16:14.400Z,15.17
2022-10-09T00:18:42.571Z,15.18
2022-10-09T00:21:20.031Z,15.11
2022-10-09T00:23:49.965Z,15.02
2022-10-09T00:26:18.304Z,14.79
2022-10-09T00:28:46.398Z,14.61
2022-10-09T00:31:14.840Z,14.61
2022-10-09T00:33:42.873Z,14.68
2022-10-09T00:36:12.464Z,14.76
2022-10-09T00:38:40.541Z,14.76
2022-10-09T00:41:09.867Z,14.85
2022-10-09T00:43:44.488Z,14.89
2022-10-09T00:46:29.558Z,14.92
2022-10-09T00:49:02.829Z,14.90
2022-10-09T00:51:32.757Z,14.93
2022-10-09T00:54:01.096Z,14.92
2022-10-09T00:56:30.308Z,14.68
2022-10-09T00:58:59.123Z,14.52
2022-10-09T01:01:27.836Z,14.39
2022-10-09T01:03:55.948Z,14.32
2022-10-09T01:06:30.247Z,14.18
2022-10-09T01:09:04.938Z,14.08
2022-10-09T01:11:42.363Z,14.05
2022-10-09T01:14:19.740Z,14.09
2022-10-09T01:16:53.514Z,14.20
2022-10-09T01:19:36.550Z,14.33
2022-10-09T01:22:15.061Z,14.40
2022-10-09T01:24:49.139Z,14.31
2022-10-09T01:27:23.094Z,14.23
2022-10-09T01:29:55.158Z,14.20
2022-10-09T01:32:28.237Z,14.21
2022-10-09T01:34:57.315Z,14.25
2022-10-09T01:37:25.832Z,14.35
2022-10-09T01:39:54.215Z,14.45
2022-10-09T01:42:26.101Z,14.55
2022-10-09T01:44:54.053Z,14.62
2022-10-09T01:47:22.862Z,14.68
2022-10-09T01:49:55.642Z,14.73
2022-10-09T01:52:31.799Z,14.73
2022-10-09T01:55:16.158Z,14.66
2022-10-09T01:57:51.322Z,14.61
2022-10-09T02:00:20.011Z,14.50
2022-10-09T02:02:49.202Z,14.49
2022-10-09T02:05:21.168Z,14.51
2022-10-09T02:07:49.279Z,14.61
2022-10-09T02:10:19.648Z,14.53
2022-10-09T02:12:53.279Z,14.49
2022-10-09T02:15:22.056Z,14.49
2022-10-09T02:17:54.232Z,14.48
2022-10-09T02:20:28.327Z,14.39
2022-10-09T02:22:57.994Z,14.25
2022-10-09T02:25:26.045Z,14.17
2022-10-09T02:27:55.572Z,14.13
2022-10-09T02:30:28.020Z,14.06
2022-10-09T02:32:56.382Z,14.02
2022-10-09T02:35:24.355Z,14.04
2022-10-09T02:37:52.252Z,14.06
2022-10-09T02:40:20.058Z,14.04
2022-10-09T02:42:48.059Z,14.09
2022-10-09T02:45:17.332Z,14.17
2022-10-09T02:47:45.140Z,14.24
2022-10-09T02:50:12.929Z,14.33
2022-10-09T02:52:40.695Z,14.39
2022-10-09T02:55:09.238Z,14.43
2022-10-09T02:57:37.040Z,14.46
2022-10-09T03:00:06.116Z,14.39
2022-10-09T03:02:35.363Z,14.45
2022-10-09T03:05:03.218Z,14.41
2022-10-09T03:07:31.257Z,14.40
2022-10-09T03:09:59.050Z,14.38
2022-10-09T03:12:26.935Z,14.40
2022-10-09T03:14:54.778Z,14.39
2022-10-09T03:17:22.581Z,14.37
2022-10-09T03:19:51.710Z,14.32
2022-10-09T03:22:19.509Z,14.28
2022-10-09T03:24:47.270Z,14.21
2022-10-09T03:27:15.064Z,14.13
2022-10-09T03:29:42.944Z,14.09
2022-10-09T03:32:10.962Z,14.05
2022-10-09T03:34:38.810Z,14.01
2022-10-09T03:37:07.939Z,14.04
2022-10-09T03:39:35.800Z,14.01
2022-10-09T03:42:03.585Z,14.00
2022-10-09T03:44:31.390Z,13.97
2022-10-09T03:46:59.241Z,13.95
2022-10-09T03:49:27.099Z,13.96
2022-10-09T03:51:54.875Z,13.96
2022-10-09T03:54:24.032Z,13.91
2022-10-09T03:56:51.833Z,13.88
2022-10-09T03:59:19.592Z,13.83
2022-10-09T04:01:47.388Z,13.81
2022-10-09T04:04:15.356Z,13.77
2022-10-09T04:06:43.259Z,13.73
2022-10-09T04:09:11.097Z,13.71
2022-10-09T04:11:40.211Z,13.68
2022-10-09T04:14:08.004Z,13.63
2022-10-09T04:16:36.137Z,13.54
2022-10-09T04:19:04.085Z,13.51
2022-10-09T04:21:33.385Z,13.51
2022-10-09T04:24:03.422Z,13.46
2022-10-09T04:26:31.194Z,13.50
2022-10-09T04:29:00.590Z,13.48
2022-10-09T04:31:28.424Z,13.41
2022-10-09T04:33:56.341Z,13.44
2022-10-09T04:36:24.412Z,13.38
2022-10-09T04:38:52.617Z,13.38
2022-10-09T04:41:20.445Z,13.30
2022-10-09T04:43:48.280Z,13.24
2022-10-09T04:46:17.504Z,13.22
2022-10-09T04:48:47.028Z,13.15
2022-10-09T04:51:15.878Z,13.13
2022-10-09T04:53:44.357Z,13.13
2022-10-09T04:56:18.286Z,13.09
2022-10-09T04:58:47.208Z,13.11
2022-10-09T05:01:19.203Z,13.09
2022-10-09T05:03:47.264Z,13.07
2022-10-09T05:06:16.318Z,13.05
2022-10-09T05:08:44.679Z,13.05
2022-10-09T05:11:14.240Z,13.02
2022-10-09T05:13:44.866Z,13.00
2022-10-09T05:16:17.147Z,12.93
2022-10-09T05:18:47.752Z,12.98
2022-10-09T05:21:16.820Z,12.97
2022-10-09T05:23:45.012Z,13.03
2022-10-09T05:26:17.953Z,12.98
2022-10-09T05:28:46.685Z,13.05
2022-10-09T05:31:20.070Z,13.04
2022-10-09T05:33:49.650Z,13.06
2022-10-09T05:36:18.413Z,13.08
2022-10-09T05:38:46.630Z,13.09
2022-10-09T05:41:16.470Z,13.12
2022-10-09T05:43:45.838Z,13.15
2022-10-09T05:46:15.691Z,13.18
2022-10-09T05:48:45.785Z,13.18
2022-10-09T05:51:16.929Z,13.18
2022-10-09T05:53:46.934Z,13.16
2022-10-09T05:56:17.447Z,13.21
2022-10-09T05:58:49.878Z,13.24
2022-10-09T06:01:17.783Z,13.29
2022-10-09T06:03:50.162Z,13.37
2022-10-09T06:06:21.231Z,13.47
2022-10-09T06:08:49.797Z,13.64
2022-10-09T06:11:19.684Z,13.75
2022-10-09T06:13:48.440Z,13.75
2022-10-09T06:16:17.931Z,13.71
2022-10-09T06:18:49.383Z,13.68
2022-10-09T06:21:18.907Z,13.64
2022-10-09T06:23:50.480Z,13.65
2022-10-09T06:26:19.086Z,13.59
2022-10-09T06:28:47.250Z,13.68
2022-10-09T06:31:16.954Z,13.68
2022-10-09T06:33:46.171Z,13.70
2022-10-09T06:36:16.178Z,13.72
2022-10-09T06:38:45.618Z,13.73
2022-10-09T06:41:15.430Z,13.74
2022-10-09T06:43:44.713Z,13.80
2022-10-09T06:46:13.649Z,13.81
2022-10-09T06:48:42.045Z,13.86
2022-10-09T06:51:12.155Z,13.89
2022-10-09T06:53:41.604Z,13.95
2022-10-09T06:56:11.800Z,13.97
2022-10-09T06:58:40.685Z,13.97
2022-10-09T07:01:10.793Z,13.99
2022-10-09T07:03:39.722Z,14.01
2022-10-09T07:06:10.078Z,14.06
2022-10-09T07:08:38.289Z,14.10
2022-10-09T07:11:11.996Z,14.06
2022-10-09T07:13:40.339Z,14.09
2022-10-09T07:16:08.745Z,14.05
2022-10-09T07:18:37.438Z,14.11
2022-10-09T07:21:06.661Z,14.13
2022-10-09T07:23:36.355Z,14.18
2022-10-09T07:26:12.917Z,14.18
2022-10-09T07:28:41.694Z,14.19
2022-10-09T07:31:09.862Z,14.23
2022-10-09T07:33:37.899Z,14.26
2022-10-09T07:36:07.148Z,14.27
2022-10-09T07:38:35.396Z,14.15
2022-10-09T07:41:04.950Z,14.35
2022-10-09T07:43:35.949Z,14.43
2022-10-09T07:46:05.017Z,14.47
2022-10-09T07:48:33.103Z,14.49
2022-10-09T07:51:09.340Z,14.51
2022-10-09T07:53:37.633Z,14.52
2022-10-09T07:56:06.160Z,14.48
2022-10-09T07:58:35.340Z,14.56
2022-10-09T08:01:07.166Z,14.51
2022-10-09T08:03:35.712Z,14.56
2022-10-09T08:06:04.005Z,14.57
2022-10-09T08:08:31.967Z,14.64
2022-10-09T08:10:59.814Z,14.63
2022-10-09T08:13:27.827Z,14.62
2022-10-09T08:15:58.828Z,14.64
2022-10-09T08:18:26.715Z,14.64
2022-10-09T08:20:59.584Z,14.67
2022-10-09T08:23:27.824Z,14.67
2022-10-09T08:25:55.650Z,14.70
2022-10-09T08:28:24.255Z,14.64
2022-10-09T08:30:52.295Z,14.71
2022-10-09T08:33:23.384Z,14.69
2022-10-09T08:35:51.846Z,14.78
2022-10-09T08:38:44.882Z,14.77
2022-10-09T08:41:11.248Z,14.79
2022-10-09T08:43:43.352Z,14.78
2022-10-09T08:46:20.872Z,14.83
2022-10-09T08:48:52.981Z,14.86
2022-10-09T08:51:25.161Z,14.90
2022-10-09T08:53:59.976Z,14.97
2022-10-09T08:56:28.274Z,15.00
2022-10-09T08:58:56.899Z,15.02
2022-10-09T09:01:33.946Z,15.06
2022-10-09T09:04:28.521Z,15.12
2022-10-09T09:07:07.660Z,15.08
2022-10-09T09:09:47.802Z,15.16
2022-10-09T09:12:21.979Z,15.19
2022-10-09T09:15:02.514Z,15.23
2022-10-09T09:17:39.227Z,15.26
2022-10-09T09:20:16.269Z,15.23
2022-10-09T09:22:48.736Z,15.20
2022-10-09T09:25:22.952Z,15.10
2022-10-09T09:27:52.971Z,15.21
2022-10-09T09:30:24.273Z,15.27
2022-10-09T09:33:01.440Z,15.23
2022-10-09T09:35:38.731Z,15.27
2022-10-09T09:38:06.770Z,15.25
2022-10-09T09:40:37.713Z,15.31
2022-10-09T09:43:15.975Z,15.35
2022-10-09T09:45:44.743Z,15.38
2022-10-09T09:48:17.553Z,15.40
2022-10-09T09:50:56.214Z,15.30
2022-10-09T09:53:36.047Z,15.43
2022-10-09T09:56:04.733Z,15.43
2022-10-09T09:58:36.170Z,15.47
2022-10-09T10:01:06.392Z,15.48
2022-10-09T10:03:36.029Z,15.51
2022-10-09T10:06:05.594Z,15.52
2022-10-09T10:08:35.187Z,15.56
2022-10-09T10:11:07.314Z,15.59
2022-10-09T10:13:38.040Z,15.59
2022-10-09T10:16:08.669Z,15.65
2022-10-09T10:18:41.915Z,15.65
2022-10-09T10:21:14.084Z,15.65
2022-10-09T10:23:44.921Z,15.71
2022-10-09T10:26:28.032Z,15.70
2022-10-09T10:29:01.932Z,15.73
2022-10-09T10:31:42.654Z,15.76
2022-10-09T10:34:18.281Z,15.81
2022-10-09T10:36:48.813Z,15.85
2022-10-09T10:39:25.201Z,15.84
2022-10-09T10:41:55.142Z,15.88
2022-10-09T10:44:31.649Z,15.86
2022-10-09T10:47:05.108Z,15.85
2022-10-09T10:49:34.109Z,15.96
2022-10-09T10:52:17.753Z,15.96
2022-10-09T10:54:52.921Z,15.99
2022-10-09T10:57:27.510Z,16.00
2022-10-09T11:00:03.916Z,15.98
2022-10-09T11:03:07.310Z,16.05
2022-10-09T11:05:43.522Z,16.06
2022-10-09T11:08:28.158Z,16.13
2022-10-09T11:11:03.884Z,16.15
2022-10-09T11:13:35.847Z,16.18
2022-10-09T11:16:17.253Z,16.15
2022-10-09T11:19:02.676Z,16.22
2022-10-09T11:21:46.266Z,16.26
2022-10-09T11:24:45.006Z,16.19
2022-10-09T11:27:18.183Z,16.32
2022-10-09T11:29:52.002Z,16.34
2022-10-09T11:32:24.615Z,16.34
2022-10-09T11:34:59.540Z,16.37
2022-10-09T11:37:30.828Z,16.35
2022-10-09T11:40:00.316Z,16.35
2022-10-09T11:42:28.741Z,16.41
2022-10-09T11:45:08.570Z,16.47
2022-10-09T11:47:43.290Z,16.46
2022-10-09T11:50:21.921Z,16.50
2022-10-09T11:52:58.527Z,16.48
2022-10-09T11:55:29.675Z,16.43
2022-10-09T11:58:08.374Z,16.53
2022-10-09T12:00:37.749Z,16.56
2022-10-09T12:03:08.124Z,16.61
2022-10-09T12:05:41.740Z,16.67
2022-10-09T12:08:15.384Z,16.80
2022-10-09T12:10:54.141Z,16.86
2022-10-09T12:13:31.863Z,16.96
2022-10-09T12:16:00.661Z,17.09
2022-10-09T12:18:32.082Z,17.19
2022-10-09T12:21:04.205Z,17.22
2022-10-09T12:23:36.027Z,17.25
2022-10-09T12:26:06.628Z,17.35
2022-10-09T12:28:38.900Z,17.44
2022-10-09T12:31:18.519Z,17.51
2022-10-09T12:33:48.990Z,17.63
2022-10-09T12:36:24.517Z,17.71
2022-10-09T12:38:52.651Z,17.74
2022-10-09T12:41:25.272Z,17.83
2022-10-09T12:43:55.275Z,17.88
2022-10-09T12:46:29.541Z,17.92
2022-10-09T12:48:58.520Z,18.05
2022-10-09T12:51:29.297Z,18.11
2022-10-09T12:53:57.277Z,18.15
2022-10-09T12:56:30.809Z,18.18
2022-10-09T12:59:00.267Z,18.24
2022-10-09T13:01:28.623Z,18.30
2022-10-09T13:03:59.030Z,18.41
2022-10-09T13:06:28.688Z,18.58
2022-10-09T13:08:58.816Z,18.64
2022-10-09T13:11:34.845Z,18.72
2022-10-09T13:14:03.165Z,18.80
2022-10-09T13:16:41.052Z,18.79
2022-10-09T13:19:23.215Z,18.80
2022-10-09T13:22:03.857Z,18.88
2022-10-09T13:24:31.758Z,18.90
2022-10-09T13:27:00.977Z,19.05
2022-10-09T13:29:28.854Z,19.11
2022-10-09T13:31:56.862Z,19.07
2022-10-09T13:34:25.102Z,19.13
2022-10-09T13:36:52.943Z,19.18
2022-10-09T13:39:20.756Z,19.22
2022-10-09T13:41:52.683Z,19.28
2022-10-09T13:44:21.958Z,19.41
2022-10-09T13:46:49.873Z,19.57
2022-10-09T13:49:17.956Z,19.59
2022-10-09T13:51:46.154Z,19.60
2022-10-09T13:54:13.956Z,19.63
2022-10-09T13:56:41.777Z,19.60
2022-10-09T13:59:09.678Z,19.41
2022-10-09T14:01:39.041Z,19.51
2022-10-09T14:04:07.081Z,19.55
2022-10-09T14:06:36.464Z,19.54
2022-10-09T14:09:05.560Z,19.64
2022-10-09T14:11:34.435Z,19.75
2022-10-09T14:14:02.448Z,19.78
2022-10-09T14:16:31.656Z,19.87
2022-10-09T14:19:02.628Z,19.80
2022-10-09T14:21:31.032Z,19.81
2022-10-09T14:24:00.837Z,19.75
2022-10-09T14:26:29.836Z,19.78
2022-10-09T14:29:01.126Z,19.88
2022-10-09T14:31:29.198Z,19.89
2022-10-09T14:33:58.607Z,20.02
2022-10-09T14:36:29.056Z,20.05
2022-10-09T14:38:57.240Z,20.18
2022-10-09T14:41:25.070Z,20.14
2022-10-09T14:43:57.078Z,20.13
2022-10-09T14:46:25.526Z,20.14
2022-10-09T14:48:55.343Z,20.15
2022-10-09T14:51:24.938Z,20.06
2022-10-09T14:53:57.275Z,19.85
2022-10-09T14:56:26.260Z,19.69
2022-10-09T14:58:54.120Z,19.53
2022-10-09T15:01:23.449Z,19.40
2022-10-09T15:03:51.337Z,19.18
2022-10-09T15:06:23.774Z,19.01
2022-10-09T15:08:54.838Z,18.82
2022-10-09T15:11:24.060Z,18.56
2022-10-09T15:13:51.936Z,18.33
2022-10-09T15:16:20.761Z,18.04
2022-10-09T15:18:50.652Z,17.89
2022-10-09T15:21:21.230Z,17.72
2022-10-09T15:23:50.500Z,17.57
2022-10-09T15:26:18.818Z,17.40
2022-10-09T15:28:48.000Z,17.27
2022-10-09T15:31:22.707Z,17.13
2022-10-09T15:33:51.300Z,16.96
2022-10-09T15:36:19.197Z,16.86
2022-10-09T15:38:47.428Z,16.77
2022-10-09T15:41:21.831Z,16.60
2022-10-09T15:43:51.734Z,16.65
2022-10-09T15:46:21.552Z,16.62
2022-10-09T15:48:49.934Z,16.56
2022-10-09T15:51:18.037Z,16.46
2022-10-09T15:53:47.926Z,16.39
2022-10-09T15:56:17.743Z,16.34
2022-10-09T15:58:45.753Z,16.23
2022-10-09T16:01:16.457Z,16.15
2022-10-09T16:03:44.983Z,16.02
2022-10-09T16:06:14.873Z,15.87
2022-10-09T16:08:43.045Z,15.84
2022-10-09T16:11:13.435Z,15.75
2022-10-09T16:13:44.091Z,15.68
2022-10-09T16:16:17.182Z,15.57
2022-10-09T16:18:45.417Z,15.50
2022-10-09T16:21:14.930Z,15.45
2022-10-09T16:23:43.837Z,15.40
2022-10-09T16:26:14.412Z,15.32
2022-10-09T16:28:43.170Z,15.33
2022-10-09T16:31:20.150Z,15.29
2022-10-09T16:33:48.252Z,15.21
2022-10-09T16:36:16.351Z,15.18
2022-10-09T16:38:44.322Z,15.14
2022-10-09T16:41:14.898Z,15.11
2022-10-09T16:43:42.797Z,15.11
2022-10-09T16:46:12.627Z,15.10
2022-10-09T16:48:42.079Z,15.18
2022-10-09T16:51:12.153Z,15.12
2022-10-09T16:53:40.029Z,15.07
2022-10-09T16:56:12.844Z,15.02
2022-10-09T16:58:41.343Z,15.04
2022-10-09T17:01:10.480Z,14.92
2022-10-09T17:03:40.410Z,15.00
2022-10-09T17:06:14.717Z,14.95
2022-10-09T17:08:42.788Z,14.89
2022-10-09T17:11:12.018Z,14.94
2022-10-09T17:13:40.816Z,14.95
2022-10-09T17:16:14.394Z,14.95
2022-10-09T17:18:45.777Z,14.94
2022-10-09T17:21:16.437Z,14.88
2022-10-09T17:23:44.769Z,14.85
2022-10-09T17:26:14.630Z,14.84
2022-10-09T17:28:43.856Z,14.77
2022-10-09T17:31:14.440Z,14.75
2022-10-09T17:33:45.758Z,14.75
2022-10-09T17:36:17.329Z,14.75
2022-10-09T17:38:45.598Z,14.73
2022-10-09T17:41:17.858Z,14.61
2022-10-09T17:43:46.268Z,14.67
2022-10-09T17:46:15.345Z,14.66
2022-10-09T17:48:48.358Z,14.68
2022-10-09T17:51:19.223Z,14.62
2022-10-09T17:53:47.525Z,14.68
2022-10-09T17:56:16.459Z,14.66
2022-10-09T17:58:47.287Z,14.62
2022-10-09T18:01:15.983Z,14.60
2022-10-09T18:03:44.738Z,14.58
2022-10-09T18:06:15.036Z,14.46
2022-10-09T18:08:44.577Z,14.51
2022-10-09T18:11:15.631Z,14.50
2022-10-09T18:13:45.086Z,14.46
2022-10-09T18:16:15.602Z,14.45
2022-10-09T18:18:43.701Z,14.40
2022-10-09T18:21:13.614Z,14.34
2022-10-09T18:23:41.452Z,14.31
2022-10-09T18:26:13.528Z,14.28
2022-10-09T18:28:46.125Z,14.28
2022-10-09T18:31:19.295Z,14.29
2022-10-09T18:33:47.506Z,14.30
2022-10-09T18:36:19.526Z,14.29
2022-10-09T18:38:49.409Z,14.26
2022-10-09T18:41:20.165Z,14.24
2022-10-09T18:43:49.489Z,14.19
2022-10-09T18:46:18.676Z,14.15
2022-10-09T18:48:46.982Z,14.01
2022-10-09T18:51:18.914Z,14.06
2022-10-09T18:53:50.200Z,14.02
2022-10-09T18:56:21.792Z,13.96
2022-10-09T18:58:51.289Z,13.88
2022-10-09T19:01:19.553Z,13.85
2022-10-09T19:03:50.050Z,13.77
2022-10-09T19:06:18.470Z,13.60
2022-10-09T19:08:46.467Z,13.57
2022-10-09T19:11:14.501Z,13.48
2022-10-09T19:13:45.316Z,13.46
2022-10-09T19:16:13.348Z,13.42
2022-10-09T19:18:41.494Z,13.38
2022-10-09T19:21:13.764Z,13.30
2022-10-09T19:23:41.747Z,13.26
2022-10-09T19:26:09.517Z,13.25
2022-10-09T19:28:38.625Z,13.22
2022-10-09T19:31:10.020Z,13.20
2022-10-09T19:33:38.625Z,13.15
2022-10-09T19:36:07.945Z,13.14
2022-10-09T19:38:36.640Z,13.10
2022-10-09T19:41:05.695Z,13.01
2022-10-09T19:43:33.840Z,12.81
2022-10-09T19:46:03.402Z,12.82
2022-10-09T19:48:32.881Z,12.75
2022-10-09T19:51:00.678Z,12.66
2022-10-09T19:53:28.615Z,12.61
2022-10-09T19:55:56.417Z,12.59
2022-10-09T19:58:24.276Z,12.50
2022-10-09T20:00:52.176Z,12.54
2022-10-09T20:03:19.996Z,12.48
2022-10-09T20:05:49.152Z,12.37
2022-10-09T20:08:16.976Z,12.25
2022-10-09T20:10:44.834Z,12.23
2022-10-09T20:13:14.070Z,12.13
2022-10-09T20:15:43.422Z,12.19
2022-10-09T20:18:11.188Z,12.29
2022-10-09T20:20:39.048Z,12.26
2022-10-09T20:23:08.209Z,12.27
2022-10-09T20:25:35.980Z,12.27
2022-10-09T20:28:03.879Z,12.31
2022-10-09T20:30:31.789Z,12.42
2022-10-09T20:33:00.059Z,12.52
2022-10-09T20:35:28.225Z,12.60
2022-10-09T20:37:56.010Z,12.60
2022-10-09T20:40:25.128Z,12.61
2022-10-09T20:42:53.420Z,12.49
2022-10-09T20:45:21.300Z,12.57
2022-10-09T20:47:50.192Z,12.62
2022-10-09T20:50:18.021Z,12.67
2022-10-09T20:52:45.859Z,12.62
2022-10-09T20:55:13.649Z,12.47
2022-10-09T20:57:42.850Z,12.24
2022-10-09T21:00:11.852Z,12.05
2022-10-09T21:02:39.700Z,11.95
2022-10-09T21:05:08.368Z,11.96
2022-10-09T21:07:36.245Z,11.94
2022-10-09T21:10:05.132Z,11.69
2022-10-09T21:12:32.982Z,11.79
2022-10-09T21:15:02.101Z,11.69
2022-10-09T21:17:29.913Z,11.66
2022-10-09T21:19:58.054Z,11.62
2022-10-09T21:22:26.670Z,11.63
2022-10-09T21:24:54.495Z,11.73
2022-10-09T21:27:22.351Z,11.79
2022-10-09T21:29:50.166Z,11.87
2022-10-09T21:32:19.392Z,11.95
2022-10-09T21:34:47.431Z,11.95
2022-10-09T21:37:21.458Z,11.97
2022-10-09T21:39:49.838Z,11.92
2022-10-09T21:42:17.626Z,11.89
2022-10-09T21:44:45.392Z,11.89
2022-10-09T21:47:17.613Z,11.86
2022-10-09T21:49:47.100Z,11.80
2022-10-09T21:52:14.856Z,11.82
2022-10-09T21:54:42.688Z,11.76
2022-10-09T21:57:10.508Z,11.84
2022-10-09T21:59:38.393Z,11.87
2022-10-09T22:02:06.257Z,12.04
2022-10-09T22:04:34.223Z,12.13
2022-10-09T22:07:03.419Z,12.11
2022-10-09T22:09:31.404Z,12.06
2022-10-09T22:12:00.266Z,12.00
2022-10-09T22:14:28.067Z,11.91
2022-10-09T22:16:55.829Z,11.86
2022-10-09T22:19:23.667Z,11.79
2022-10-09T22:21:51.420Z,11.72
2022-10-09T22:24:20.629Z,11.58
2022-10-09T22:26:48.438Z,11.37
2022-10-09T22:29:16.230Z,11.33
2022-10-09T22:31:44.421Z,11.24
2022-10-09T22:34:12.166Z,11.18
2022-10-09T22:36:40.128Z,11.12
2022-10-09T22:39:08.133Z,11.12
2022-10-09T22:41:37.632Z,11.05
2022-10-09T22:44:06.972Z,10.98
2022-10-09T22:46:37.350Z,10.96
2022-10-09T22:49:06.216Z,10.99
2022-10-09T22:51:34.358Z,10.97
2022-10-09T22:54:02.294Z,10.94
2022-10-09T22:56:32.068Z,10.89
2022-10-09T22:59:01.702Z,10.88
2022-10-09T23:01:32.813Z,10.82
2022-10-09T23:04:02.549Z,10.81
2022-10-09T23:06:30.600Z,10.72
2022-10-09T23:08:59.184Z,10.80
2022-10-09T23:11:27.417Z,10.81
2022-10-09T23:13:56.828Z,10.85
2022-10-09T23:16:27.187Z,10.90
2022-10-09T23:18:56.734Z,10.92
2022-10-09T23:21:25.802Z,10.86
2022-10-09T23:23:54.376Z,10.95
2022-10-09T23:26:24.679Z,10.89
2022-10-09T23:28:53.426Z,11.04
2022-10-09T23:31:22.044Z,11.03
2022-10-09T23:33:51.392Z,11.04
2022-10-09T23:36:21.308Z,11.03
2022-10-09T23:38:49.729Z,10.85
2022-10-09T23:41:19.440Z,10.74
2022-10-09T23:43:48.459Z,10.76
2022-10-09T23:46:17.929Z,10.81
2022-10-09T23:48:46.995Z,10.89
2022-10-09T23:51:16.920Z,11.06
2022-10-09T23:53:44.939Z,11.00
2022-10-09T23:56:18.941Z,10.86
2022-10-09T23:58:47.241Z,10.92
